Poquonock, Connecticut
Current Conditions -  °F | °C
As of 3:51 PM on Thursday 23 Oct 2014 (Local Time) from KBDL Reporting Station
Overcast Overcast  
Wind Chill: 54°   Ceiling: 1500
Heat Index: 54°   Visibility: 10mi
Dew Point: 47°   Wind: 20mph
Humidity: 77%   Direction: 360°N
Pressure: 29.65"   Gusts: 29mph
Location:  41.9°N, 72.68°W
Report Text: KBDL 231951Z 36017G25KT 10SM BKN015 OVC030 12/08 A2965 RMK AO2 SLP042 DZE03 P0000 T01220083
Loading
Personal Weather Stations






























Interactive Weather Map
Tropical Storm Tracking
New forecast layout! Learn more

10-Day Weather Forecast

Advertisements
Track Severe Weather on mobile